Time;durP1;ratioP1;P1;durP2;ratioP2;P2;SDS_P1;SDS_P2;PMS_P1;PMS_P2;Temp;Humidity;BMP_temperature;BMP_pressure;BME280_temperature;BME280_humidity;BME280_pressure;Samples;Min_cycle;Max_cycle;Signal;HPM_P1;HPM_P2
2021/12/25 00:01:40;;;;;;;12.27;10.13;;;;;;;-143.35;100.00;58682.94;5016480;28;20032;-48
2021/12/25 00:04:07;;;;;;;14.50;10.30;;;;;;;-143.35;100.00;58682.94;5016379;28;20092;-49
2021/12/25 00:06:33;;;;;;;14.48;11.00;;;;;;;-143.35;100.00;58682.94;5016426;28;20540;-48
2021/12/25 00:08:59;;;;;;;14.32;10.70;;;;;;;-143.35;100.00;58682.94;5016393;28;20046;-49
2021/12/25 00:11:24;;;;;;;14.93;11.30;;;;;;;-143.35;100.00;58682.94;5016092;28;20061;-49
2021/12/25 00:13:50;;;;;;;14.68;10.40;;;;;;;-143.35;100.00;58682.94;5016297;28;20042;-48
2021/12/25 00:16:15;;;;;;;15.50;11.55;;;;;;;-143.35;100.00;58682.94;5017378;28;20022;-47
2021/12/25 00:18:40;;;;;;;17.90;13.30;;;;;;;-143.35;100.00;58682.94;5016160;28;20045;-48
2021/12/25 00:21:07;;;;;;;17.42;12.60;;;;;;;-143.35;100.00;58682.94;5016461;28;20036;-48
2021/12/25 00:23:33;;;;;;;20.08;13.90;;;;;;;-143.35;100.00;58682.94;5016055;28;20397;-48
2021/12/25 00:26:03;;;;;;;21.70;12.93;;;;;;;-143.35;100.00;58682.94;5016013;28;20018;-48
2021/12/25 00:36:14;;;;;;;18.98;14.15;;;;;;;-143.35;100.00;58682.94;5015937;28;20061;-48
2021/12/25 00:38:42;;;;;;;;;;;;;;;-143.35;100.00;58682.94;5015005;28;20030;-48
2021/12/25 00:41:08;;;;;;;20.83;14.18;;;;;;;-143.35;100.00;58682.94;5015663;28;19909;-47
2021/12/25 00:43:34;;;;;;;22.60;15.23;;;;;;;-143.35;100.00;58682.94;5014403;28;20067;-47
2021/12/25 00:46:00;;;;;;;19.10;13.77;;;;;;;-143.35;100.00;58682.94;5015576;28;20033;-48
2021/12/25 00:48:26;;;;;;;20.02;14.95;;;;;;;-143.35;100.00;58682.94;5015729;28;20045;-48
2021/12/25 00:50:52;;;;;;;20.10;14.02;;;;;;;-143.35;100.00;58682.94;5015490;28;20053;-48
2021/12/25 00:53:17;;;;;;;20.50;14.63;;;;;;;-143.35;100.00;58682.94;5013892;28;20018;-49
2021/12/25 00:55:43;;;;;;;19.55;14.27;;;;;;;-143.35;100.00;58682.94;5014755;28;20032;-48
2021/12/25 00:58:08;;;;;;;21.40;15.35;;;;;;;-143.35;100.00;58682.94;5015519;28;20504;-47
2021/12/25 01:00:34;;;;;;;22.98;16.63;;;;;;;-143.35;100.00;58682.94;5015274;28;20036;-47
2021/12/25 01:02:59;;;;;;;21.05;15.27;;;;;;;-143.35;100.00;58682.94;5015423;28;20022;-47
2021/12/25 01:05:24;;;;;;;21.10;14.52;;;;;;;-143.35;100.00;58682.94;5015392;28;20040;-47
2021/12/25 01:07:50;;;;;;;22.77;15.57;;;;;;;-143.35;100.00;58682.94;5015312;28;20029;-47
2021/12/25 01:10:18;;;;;;;22.08;15.02;;;;;;;-143.35;100.00;58682.94;5015271;28;20034;-48
2021/12/25 01:15:13;;;;;;;24.20;17.02;;;;;;;-143.35;100.00;58682.94;5015118;28;20051;-47
2021/12/25 01:20:30;;;;;;;;;;;;;;;;;;;;;
2021/12/25 01:25:29;;;;;;;;;;;;;;;;;;;;;
2021/12/25 01:30:20;;;;;;;23.25;15.85;;;;;;;-143.35;100.00;58682.94;5014854;28;20084;-48
2021/12/25 01:48:15;;;;;;;18.02;13.13;;;;;;;-143.35;100.00;58682.94;5014920;28;20144;-47
2021/12/25 01:50:41;;;;;;;18.60;12.88;;;;;;;-143.35;100.00;58682.94;5014483;28;20042;-50
2021/12/25 01:53:06;;;;;;;16.05;12.48;;;;;;;-143.35;100.00;58682.94;5014571;28;20092;-47
2021/12/25 01:55:32;;;;;;;14.38;10.60;;;;;;;-143.35;100.00;58682.94;5014650;28;20030;-47
2021/12/25 01:57:59;;;;;;;13.60;10.38;;;;;;;-143.35;100.00;58682.94;5014501;28;20066;-48
2021/12/25 02:00:45;;;;;;;13.73;9.90;;;;;;;-143.35;100.00;58682.94;5014260;28;20109;-50
2021/12/25 02:03:13;;;;;;;12.80;9.43;;;;;;;-143.35;100.00;58682.94;5014506;28;20493;-51
2021/12/25 02:05:38;;;;;;;13.75;9.93;;;;;;;-143.35;100.00;58682.94;5014056;28;20071;-51
2021/12/25 02:08:04;;;;;;;13.63;9.55;;;;;;;-143.35;100.00;58682.94;5015300;28;20120;-47
2021/12/25 02:10:30;;;;;;;14.10;10.27;;;;;;;-143.35;100.00;58682.94;5014616;28;20030;-48
2021/12/25 02:12:56;;;;;;;12.18;9.25;;;;;;;-143.35;100.00;58682.94;5014205;28;20050;-47
2021/12/25 02:15:24;;;;;;;12.73;9.55;;;;;;;-143.35;100.00;58682.94;5014389;28;20018;-48
2021/12/25 02:20:27;;;;;;;12.57;9.23;;;;;;;-143.35;100.00;58682.94;5014300;28;20034;-48
2021/12/25 02:22:59;;;;;;;12.75;8.65;;;;;;;-143.35;100.00;58682.94;5014041;28;20503;-49
2021/12/25 02:25:25;;;;;;;11.73;8.38;;;;;;;-143.35;100.00;58682.94;5014305;28;20021;-49
2021/12/25 02:27:51;;;;;;;13.90;8.40;;;;;;;-143.35;100.00;58682.94;5014130;28;20060;-47
2021/12/25 02:30:16;;;;;;;13.57;8.45;;;;;;;-143.35;100.00;58682.94;5014089;28;20018;-48
2021/12/25 02:32:46;;;;;;;12.77;9.35;;;;;;;-143.35;100.00;58682.94;5014030;28;20465;-48
2021/12/25 02:35:13;;;;;;;12.63;9.10;;;;;;;-143.35;100.00;58682.94;5012146;28;20034;-50
2021/12/25 02:37:39;;;;;;;13.98;9.88;;;;;;;-143.35;100.00;58682.94;5014113;28;20076;-49
2021/12/25 02:40:07;;;;;;;13.73;9.88;;;;;;;-143.35;100.00;58682.94;5013856;28;20054;-48
2021/12/25 02:42:34;;;;;;;14.73;10.30;;;;;;;-143.35;100.00;58682.94;5014089;28;20034;-50
2021/12/25 02:45:00;;;;;;;18.38;11.18;;;;;;;-143.35;100.00;58682.94;5013819;28;20381;-48
2021/12/25 02:47:29;;;;;;;16.10;11.70;;;;;;;-143.35;100.00;58682.94;5013976;28;20021;-48
2021/12/25 02:49:54;;;;;;;15.32;11.43;;;;;;;-143.35;100.00;58682.94;5012667;28;20014;-48
2021/12/25 02:52:21;;;;;;;16.00;11.25;;;;;;;-143.35;100.00;58682.94;5013885;28;20053;-51
2021/12/25 02:54:46;;;;;;;16.92;11.55;;;;;;;-143.35;100.00;58682.94;5013963;28;20069;-50
2021/12/25 02:57:12;;;;;;;19.30;13.02;;;;;;;-143.35;100.00;58682.94;5013915;28;20049;-51
2021/12/25 02:59:38;;;;;;;16.02;10.98;;;;;;;-143.35;100.00;58682.94;5014028;28;20029;-49
2021/12/25 03:02:05;;;;;;;18.33;12.45;;;;;;;-143.35;100.00;58682.94;5014000;28;20029;-51
2021/12/25 03:04:31;;;;;;;18.02;13.27;;;;;;;-143.35;100.00;58682.94;5012846;28;20037;-48
2021/12/25 03:06:56;;;;;;;21.38;14.45;;;;;;;-143.35;100.00;58682.94;5013995;28;20430;-48
2021/12/25 03:09:21;;;;;;;19.20;13.35;;;;;;;-143.35;100.00;58682.94;5014002;28;20101;-50
2021/12/25 03:11:47;;;;;;;21.33;13.85;;;;;;;-143.35;100.00;58682.94;5020092;23;20384;-49
2021/12/25 03:14:29;;;;;;;20.23;14.32;;;;;;;-143.35;100.00;58682.94;5013762;28;20121;-48
2021/12/25 03:16:55;;;;;;;22.23;14.32;;;;;;;-143.35;100.00;58682.94;5013966;28;20029;-51
2021/12/25 03:19:27;;;;;;;21.33;13.82;;;;;;;-143.35;100.00;58682.94;5017304;28;20029;-51
2021/12/25 03:21:52;;;;;;;21.88;14.82;;;;;;;-143.35;100.00;58682.94;5017512;28;20038;-49
2021/12/25 03:24:18;;;;;;;23.98;15.10;;;;;;;-143.35;100.00;58682.94;5017261;28;20033;-49
2021/12/25 03:26:43;;;;;;;24.10;13.98;;;;;;;-143.35;100.00;58682.94;5017277;28;20029;-49
2021/12/25 03:29:08;;;;;;;24.42;15.95;;;;;;;-143.35;100.00;58682.94;5017288;28;20034;-51
2021/12/25 03:31:34;;;;;;;24.67;16.33;;;;;;;-143.35;100.00;58682.94;5017105;28;20029;-51
2021/12/25 03:33:59;;;;;;;24.33;15.55;;;;;;;-143.35;100.00;58682.94;5017244;28;20087;-50
2021/12/25 03:36:25;;;;;;;22.38;14.55;;;;;;;-143.35;100.00;58682.94;5017186;28;20037;-49
2021/12/25 03:38:51;;;;;;;27.27;16.95;;;;;;;-143.35;100.00;58682.94;5017050;28;20018;-49
2021/12/25 03:41:18;;;;;;;23.50;14.27;;;;;;;-143.35;100.00;58682.94;5016735;28;20485;-50
2021/12/25 03:43:44;;;;;;;25.90;15.57;;;;;;;-143.35;100.00;58682.94;5016989;28;20021;-51
2021/12/25 03:46:11;;;;;;;24.23;15.10;;;;;;;-143.35;100.00;58682.94;5016911;28;20033;-50
2021/12/25 03:49:02;;;;;;;23.80;14.93;;;;;;;-143.35;100.00;58682.94;5016950;28;20022;-49
2021/12/25 03:59:41;;;;;;;16.80;11.20;;;;;;;-143.35;100.00;58682.94;5016646;28;20032;-51
2021/12/25 04:02:16;;;;;;;17.83;11.57;;;;;;;-143.35;100.00;58682.94;5016693;28;20038;-51
2021/12/25 04:04:45;;;;;;;18.15;11.95;;;;;;;-143.35;100.00;58682.94;5016665;28;20410;-51
2021/12/25 04:07:41;;;;;;;19.08;11.48;;;;;;;-143.35;100.00;58682.94;5016503;28;20112;-49
2021/12/25 04:10:03;;;;;;;15.75;10.40;;;;;;;-143.35;100.00;58682.94;5016162;28;20034;-50
2021/12/25 04:12:28;;;;;;;18.40;10.82;;;;;;;-143.35;100.00;58682.94;5016204;28;20085;-49
2021/12/25 04:14:54;;;;;;;16.40;10.07;;;;;;;-143.35;100.00;58682.94;5016306;28;20065;-52
2021/12/25 04:17:19;;;;;;;13.70;9.27;;;;;;;-143.35;100.00;58682.94;5016347;28;20127;-51
2021/12/25 04:19:44;;;;;;;17.13;9.68;;;;;;;-143.35;100.00;58682.94;5016244;28;20026;-52
2021/12/25 04:22:16;;;;;;;13.25;8.65;;;;;;;-143.35;100.00;58682.94;5016357;28;20026;-50
2021/12/25 04:24:43;;;;;;;15.00;10.02;;;;;;;-143.35;100.00;58682.94;5015176;28;20096;-51
2021/12/25 04:27:13;;;;;;;14.35;10.02;;;;;;;-143.35;100.00;58682.94;5016286;28;20032;-50
2021/12/25 04:29:47;;;;;;;15.02;9.32;;;;;;;-143.35;100.00;58682.94;5015926;28;20018;-49
2021/12/25 04:49:15;;;;;;;16.88;10.50;;;;;;;-143.35;100.00;58682.94;5016059;28;20447;-50
2021/12/25 05:02:37;;;;;;;19.55;10.60;;;;;;;-143.35;100.00;58682.94;5015801;28;20072;-50
2021/12/25 05:05:05;;;;;;;18.83;11.15;;;;;;;-143.35;100.00;58682.94;5015451;28;20018;-49
2021/12/25 05:07:31;;;;;;;19.48;10.75;;;;;;;-143.35;100.00;58682.94;5015444;28;20029;-49
2021/12/25 05:09:58;;;;;;;22.27;10.57;;;;;;;-143.35;100.00;58682.94;5015233;28;20024;-49
2021/12/25 05:12:24;;;;;;;19.67;11.32;;;;;;;-143.35;100.00;58682.94;5015221;28;20409;-52
2021/12/25 05:14:50;;;;;;;20.35;10.80;;;;;;;-143.35;100.00;58682.94;5015309;28;20077;-49
2021/12/25 05:17:15;;;;;;;20.30;11.07;;;;;;;-143.35;100.00;58682.94;5015157;28;20061;-51
2021/12/25 05:19:42;;;;;;;17.17;10.95;;;;;;;-143.35;100.00;58682.94;5013931;28;20053;-50
2021/12/25 05:22:07;;;;;;;23.90;13.45;;;;;;;-143.35;100.00;58682.94;5015127;28;20030;-49
2021/12/25 05:24:32;;;;;;;20.85;12.65;;;;;;;-143.35;100.00;58682.94;5015149;28;20026;-49
2021/12/25 05:26:58;;;;;;;21.92;12.40;;;;;;;-143.35;100.00;58682.94;5015017;28;20076;-52
2021/12/25 05:29:25;;;;;;;21.27;12.10;;;;;;;-143.35;100.00;58682.94;5015129;28;20030;-48
2021/12/25 05:31:53;;;;;;;21.27;12.57;;;;;;;-143.35;100.00;58682.94;5015022;28;20037;-50
2021/12/25 05:34:18;;;;;;;21.45;12.90;;;;;;;-143.35;100.00;58682.94;5014825;28;20041;-52
2021/12/25 05:36:44;;;;;;;23.48;12.75;;;;;;;-143.35;100.00;58682.94;5014855;28;20053;-48
2021/12/25 05:39:12;;;;;;;24.65;13.27;;;;;;;-143.35;100.00;58682.94;5014760;28;20033;-49
2021/12/25 05:41:38;;;;;;;27.55;14.07;;;;;;;-143.35;100.00;58682.94;5014463;28;20029;-50
2021/12/25 05:44:04;;;;;;;23.65;13.32;;;;;;;-143.35;100.00;58682.94;5014773;28;20025;-50
2021/12/25 05:46:29;;;;;;;19.63;11.93;;;;;;;-143.35;100.00;58682.94;5014849;28;20485;-49
2021/12/25 05:48:54;;;;;;;20.35;11.75;;;;;;;-143.35;100.00;58682.94;5014700;28;20030;-51
2021/12/25 05:51:20;;;;;;;21.58;12.13;;;;;;;-143.35;100.00;58682.94;5014685;28;20033;-50
2021/12/25 05:53:46;;;;;;;21.27;11.93;;;;;;;-143.35;100.00;58682.94;5014432;28;20363;-51
2021/12/25 05:56:12;;;;;;;19.40;11.57;;;;;;;-143.35;100.00;58682.94;5014553;28;20030;-48
2021/12/25 05:58:37;;;;;;;17.88;10.98;;;;;;;-143.35;100.00;58682.94;5014617;28;20026;-49
2021/12/25 06:01:04;;;;;;;19.92;11.43;;;;;;;-143.35;100.00;58682.94;5014559;28;20462;-49
2021/12/25 06:03:29;;;;;;;17.08;10.95;;;;;;;-143.35;100.00;58682.94;5014637;28;20025;-48
2021/12/25 06:05:57;;;;;;;23.00;12.70;;;;;;;-143.35;100.00;58682.94;5014445;28;20096;-51
2021/12/25 06:08:22;;;;;;;22.80;12.32;;;;;;;-143.35;100.00;58682.94;5014398;28;20032;-49
2021/12/25 06:10:47;;;;;;;18.20;11.27;;;;;;;-143.35;100.00;58682.94;5014298;28;20026;-48
2021/12/25 06:13:18;;;;;;;20.17;12.70;;;;;;;-143.35;100.00;58682.94;5014409;28;20049;-51
2021/12/25 06:15:43;;;;;;;18.40;12.00;;;;;;;-143.35;100.00;58682.94;5014383;28;20041;-49
2021/12/25 06:18:10;;;;;;;17.98;11.85;;;;;;;-143.35;100.00;58682.94;5014270;28;20045;-49
2021/12/25 06:20:36;;;;;;;19.58;12.15;;;;;;;-143.35;100.00;58682.94;5014232;28;20476;-49
2021/12/25 06:23:02;;;;;;;21.85;12.55;;;;;;;-143.35;100.00;58682.94;5014123;28;20030;-50
2021/12/25 06:25:27;;;;;;;20.42;12.63;;;;;;;-143.35;100.00;58682.94;5013005;28;20033;-49
2021/12/25 06:27:54;;;;;;;18.05;11.85;;;;;;;-143.35;100.00;58682.94;5014315;28;20041;-50
2021/12/25 06:30:19;;;;;;;17.00;11.57;;;;;;;-143.35;100.00;58682.94;5014023;28;20374;-49
2021/12/25 06:32:44;;;;;;;19.23;12.43;;;;;;;-143.35;100.00;58682.94;5014019;28;20033;-48
2021/12/25 06:35:10;;;;;;;18.98;12.68;;;;;;;-143.35;100.00;58682.94;5014121;28;20445;-51
2021/12/25 06:37:36;;;;;;;17.95;11.88;;;;;;;-143.35;100.00;58682.94;5014010;28;20030;-48
2021/12/25 06:40:01;;;;;;;21.58;12.50;;;;;;;-143.35;100.00;58682.94;5013950;28;20030;-48
2021/12/25 06:42:26;;;;;;;21.90;13.57;;;;;;;-143.35;100.00;58682.94;5014721;28;20021;-48
2021/12/25 06:44:52;;;;;;;21.55;12.75;;;;;;;-143.35;100.00;58682.94;5014083;28;20030;-48
2021/12/25 06:47:17;;;;;;;22.55;13.57;;;;;;;-143.35;100.00;58682.94;5014161;28;20489;-49
2021/12/25 06:49:42;;;;;;;18.73;12.70;;;;;;;-143.35;100.00;58682.94;5014075;28;20033;-48
2021/12/25 06:52:08;;;;;;;22.42;12.88;;;;;;;-143.35;100.00;58682.94;5014515;28;20438;-48
2021/12/25 06:54:34;;;;;;;22.00;12.55;;;;;;;-143.35;100.00;58682.94;5017885;28;20030;-48
2021/12/25 06:57:01;;;;;;;22.42;14.07;;;;;;;-143.35;100.00;58682.94;5017845;28;20401;-50
2021/12/25 06:59:27;;;;;;;26.05;14.85;;;;;;;-143.35;100.00;58682.94;5017703;28;20060;-48
2021/12/25 07:01:52;;;;;;;21.65;13.13;;;;;;;-143.35;100.00;58682.94;5017733;28;20505;-48
2021/12/25 07:04:17;;;;;;;27.27;13.88;;;;;;;-143.35;100.00;58682.94;5017623;28;20033;-48
2021/12/25 07:06:43;;;;;;;25.15;13.27;;;;;;;-143.35;100.00;58682.94;5017759;28;20030;-48
2021/12/25 07:09:09;;;;;;;22.50;13.52;;;;;;;-143.35;100.00;58682.94;5017423;28;20030;-49
2021/12/25 07:11:36;;;;;;;22.77;13.68;;;;;;;-143.35;100.00;58682.94;5017286;28;20050;-48
2021/12/25 07:14:04;;;;;;;23.55;13.07;;;;;;;-143.35;100.00;58682.94;5017513;28;20105;-49
2021/12/25 07:16:31;;;;;;;22.35;13.20;;;;;;;-143.35;100.00;58682.94;5017530;28;20025;-50
2021/12/25 07:18:56;;;;;;;23.08;13.55;;;;;;;-143.35;100.00;58682.94;5017306;28;20061;-48
2021/12/25 07:21:22;;;;;;;21.48;12.77;;;;;;;-143.35;100.00;58682.94;5017295;28;20021;-49
2021/12/25 07:23:47;;;;;;;20.83;12.23;;;;;;;-143.35;100.00;58682.94;5017350;28;20040;-47
2021/12/25 07:26:17;;;;;;;23.13;14.07;;;;;;;-143.35;100.00;58682.94;5017319;28;20536;-48
2021/12/25 07:28:43;;;;;;;21.50;12.52;;;;;;;-143.35;100.00;58682.94;5017305;28;20041;-48
2021/12/25 07:31:08;;;;;;;20.42;11.88;;;;;;;-143.35;100.00;58682.94;5017218;28;20029;-50
2021/12/25 07:33:36;;;;;;;24.35;13.13;;;;;;;-143.35;100.00;58682.94;5017175;28;20026;-48
2021/12/25 07:36:03;;;;;;;21.35;12.70;;;;;;;-143.35;100.00;58682.94;5017118;28;20033;-48
2021/12/25 07:38:29;;;;;;;22.67;12.93;;;;;;;-143.35;100.00;58682.94;5017185;28;20124;-48
2021/12/25 07:40:54;;;;;;;21.15;12.57;;;;;;;-143.35;100.00;58682.94;5016962;28;20105;-49
2021/12/25 07:43:19;;;;;;;22.40;12.60;;;;;;;-143.35;100.00;58682.94;5016880;28;20362;-50
2021/12/25 07:45:48;;;;;;;24.50;13.25;;;;;;;-143.35;100.00;58682.94;5016976;28;20038;-48
2021/12/25 07:48:18;;;;;;;26.52;12.88;;;;;;;-143.35;100.00;58682.94;5016795;28;20477;-49
2021/12/25 07:50:44;;;;;;;21.30;12.40;;;;;;;-143.35;100.00;58682.94;5016967;28;20359;-51
2021/12/25 07:53:10;;;;;;;23.48;13.93;;;;;;;-143.35;100.00;58682.94;5016755;28;20299;-49
2021/12/25 07:55:36;;;;;;;19.55;12.40;;;;;;;-143.35;100.00;58682.94;5016670;28;20393;-49
2021/12/25 07:58:02;;;;;;;22.38;11.95;;;;;;;-143.35;100.00;58682.94;5016560;28;20026;-49
2021/12/25 08:00:27;;;;;;;19.17;12.07;;;;;;;-143.35;100.00;58682.94;5016543;28;20026;-49
2021/12/25 08:02:53;;;;;;;20.75;12.45;;;;;;;-143.35;100.00;58682.94;5015953;28;20541;-48
2021/12/25 08:05:20;;;;;;;19.55;12.55;;;;;;;-143.35;100.00;58682.94;5016512;28;20389;-51
2021/12/25 08:07:46;;;;;;;19.23;11.27;;;;;;;-143.35;100.00;58682.94;5016740;28;20033;-50
2021/12/25 08:10:18;;;;;;;18.50;11.30;;;;;;;-143.35;100.00;58682.94;5016482;28;20038;-48
2021/12/25 08:12:50;;;;;;;22.52;12.38;;;;;;;-143.35;100.00;58682.94;5016352;28;20041;-48
2021/12/25 08:15:17;;;;;;;19.02;11.13;;;;;;;-143.35;100.00;58682.94;5016470;28;20385;-51
2021/12/25 08:17:43;;;;;;;16.95;11.00;;;;;;;-143.35;100.00;58682.94;5016274;28;20425;-50
2021/12/25 08:20:09;;;;;;;16.83;10.23;;;;;;;-143.35;100.00;58682.94;5016254;28;20061;-50
2021/12/25 08:22:35;;;;;;;16.90;10.32;;;;;;;-143.35;100.00;58682.94;5016154;28;20474;-48
2021/12/25 08:25:01;;;;;;;18.02;11.70;;;;;;;-143.35;100.00;58682.94;5016158;28;20040;-48
2021/12/25 08:27:26;;;;;;;16.30;10.88;;;;;;;-143.35;100.00;58682.94;5016293;28;20105;-48
2021/12/25 08:29:52;;;;;;;17.05;11.07;;;;;;;-143.35;100.00;58682.94;5016038;28;20033;-48
2021/12/25 08:32:17;;;;;;;17.58;10.65;;;;;;;-143.35;100.00;58682.94;5016000;28;20029;-47
2021/12/25 08:34:43;;;;;;;17.77;10.02;;;;;;;-143.35;100.00;58682.94;5016057;28;20426;-50
2021/12/25 08:37:10;;;;;;;14.57;9.23;;;;;;;-143.35;100.00;58682.94;5014742;28;20030;-52
2021/12/25 08:39:35;;;;;;;15.85;8.90;;;;;;;-143.35;100.00;58682.94;5015847;28;20026;-50
2021/12/25 08:42:04;;;;;;;12.93;8.52;;;;;;;-143.35;100.00;58682.94;5015839;28;20058;-48
2021/12/25 08:44:35;;;;;;;;;;;;;;;;;;;;;
2021/12/25 08:46:59;;;;;;;12.60;7.15;;;;;;;-143.35;100.00;58682.94;5015745;28;20034;-49
2021/12/25 08:49:28;;;;;;;10.50;7.57;;;;;;;-143.35;100.00;58682.94;5015728;28;20029;-49
2021/12/25 08:51:55;;;;;;;11.10;8.57;;;;;;;-143.35;100.00;58682.94;5015675;28;20080;-50
2021/12/25 08:54:20;;;;;;;9.90;6.88;;;;;;;-143.35;100.00;58682.94;5015554;28;20034;-50
2021/12/25 08:56:46;;;;;;;10.15;6.68;;;;;;;-143.35;100.00;58682.94;5015598;28;20044;-48
2021/12/25 08:59:11;;;;;;;8.63;5.57;;;;;;;-143.35;100.00;58682.94;5015525;28;20061;-50
2021/12/25 09:01:36;;;;;;;9.90;6.28;;;;;;;-143.35;100.00;58682.94;5015476;28;20481;-48
2021/12/25 09:04:03;;;;;;;8.68;6.05;;;;;;;-143.35;100.00;58682.94;5015495;28;20497;-48
2021/12/25 09:06:28;;;;;;;8.27;5.68;;;;;;;-143.35;100.00;58682.94;5015503;28;20026;-48
2021/12/25 09:08:54;;;;;;;10.55;6.38;;;;;;;-143.35;100.00;58682.94;5015410;28;20052;-48
2021/12/25 09:11:20;;;;;;;7.50;5.78;;;;;;;-143.35;100.00;58682.94;5015178;28;20397;-48
2021/12/25 09:13:46;;;;;;;7.18;5.57;;;;;;;-143.35;100.00;58682.94;5015310;28;20036;-51
2021/12/25 09:16:12;;;;;;;8.25;5.65;;;;;;;-143.35;100.00;58682.94;5014345;28;20458;-48
2021/12/25 09:18:38;;;;;;;11.38;6.70;;;;;;;-143.35;100.00;58682.94;5015271;28;20028;-49
2021/12/25 09:21:03;;;;;;;6.82;5.68;;;;;;;-143.35;100.00;58682.94;5015569;28;20469;-49
2021/12/25 09:23:29;;;;;;;7.75;6.43;;;;;;;-143.35;100.00;58682.94;5015434;28;20053;-48
2021/12/25 09:25:54;;;;;;;8.82;6.35;;;;;;;-143.35;100.00;58682.94;5015124;28;20030;-49
2021/12/25 09:28:20;;;;;;;7.47;5.55;;;;;;;-143.35;100.00;58682.94;5015077;28;20032;-48
2021/12/25 09:30:45;;;;;;;7.53;5.68;;;;;;;-143.35;100.00;58682.94;5015101;28;20555;-48
2021/12/25 09:33:10;;;;;;;6.88;5.65;;;;;;;-143.35;100.00;58682.94;5015007;28;20091;-48
2021/12/25 09:35:36;;;;;;;8.02;5.80;;;;;;;-143.35;100.00;58682.94;5014802;28;20026;-49
2021/12/25 09:38:03;;;;;;;8.40;5.82;;;;;;;-143.35;100.00;58682.94;5014753;28;20030;-47
2021/12/25 09:40:28;;;;;;;8.00;6.05;;;;;;;-143.35;100.00;58682.94;5014674;28;20464;-49
2021/12/25 09:42:55;;;;;;;7.10;5.68;;;;;;;-143.35;100.00;58682.94;5014779;28;20053;-48
2021/12/25 09:45:22;;;;;;;11.63;6.25;;;;;;;-143.35;100.00;58682.94;5014617;28;20048;-48
2021/12/25 09:47:48;;;;;;;8.25;6.53;;;;;;;-143.35;100.00;58682.94;5014606;28;20025;-48
2021/12/25 09:50:14;;;;;;;8.68;6.43;;;;;;;-143.35;100.00;58682.94;5014556;28;20382;-49
2021/12/25 09:52:40;;;;;;;9.25;7.15;;;;;;;-143.35;100.00;58682.94;5014600;28;20022;-48
2021/12/25 09:55:07;;;;;;;9.02;6.60;;;;;;;-143.35;100.00;58682.94;5014545;28;20116;-48
2021/12/25 09:57:32;;;;;;;9.40;6.35;;;;;;;-143.35;100.00;58682.94;5014517;28;20491;-48
2021/12/25 09:59:58;;;;;;;9.13;6.40;;;;;;;-143.35;100.00;58682.94;5014513;28;20022;-48
2021/12/25 10:02:23;;;;;;;7.88;5.90;;;;;;;-143.35;100.00;58682.94;5014537;28;20104;-49
2021/12/25 10:04:55;;;;;;;7.93;5.97;;;;;;;-143.35;100.00;58682.94;5014341;28;20029;-49
2021/12/25 10:07:29;;;;;;;7.68;6.43;;;;;;;-143.35;100.00;58682.94;5014418;28;20091;-48
2021/12/25 10:10:06;;;;;;;15.52;7.15;;;;;;;-143.35;100.00;58682.94;5014311;28;20022;-51
2021/12/25 10:12:46;;;;;;;8.23;6.10;;;;;;;-143.35;100.00;58682.94;5014072;28;20081;-48
2021/12/25 10:15:19;;;;;;;8.07;5.90;;;;;;;-143.35;100.00;58682.94;5014344;28;20069;-48
2021/12/25 10:17:49;;;;;;;6.75;5.32;;;;;;;-143.35;100.00;58682.94;5014288;28;20065;-49
2021/12/25 10:20:28;;;;;;;8.45;5.55;;;;;;;-143.35;100.00;58682.94;5014047;28;20030;-48
2021/12/25 10:23:09;;;;;;;7.57;5.20;;;;;;;-143.35;100.00;58682.94;5014147;28;20076;-48
2021/12/25 10:25:46;;;;;;;7.43;6.25;;;;;;;-143.35;100.00;58682.94;5014234;28;20061;-51
2021/12/25 10:28:13;;;;;;;7.47;5.97;;;;;;;-143.35;100.00;58682.94;5013978;28;20654;-48
2021/12/25 10:31:10;;;;;;;9.30;6.13;;;;;;;-143.35;100.00;58682.94;5014173;28;20421;-49
2021/12/25 10:33:44;;;;;;;7.35;5.97;;;;;;;-143.35;100.00;58682.94;5007816;28;20049;-48
2021/12/25 10:36:21;;;;;;;9.50;5.90;;;;;;;-143.35;100.00;58682.94;5014091;28;20377;-48
2021/12/25 10:39:06;;;;;;;11.48;6.53;;;;;;;-143.35;100.00;58682.94;5014081;28;20018;-48
2021/12/25 10:41:35;;;;;;;9.52;6.05;;;;;;;-143.35;100.00;58682.94;5014125;28;20041;-49
2021/12/25 10:44:17;;;;;;;9.95;5.97;;;;;;;-143.35;100.00;58682.94;5012719;28;20046;-48
2021/12/25 10:46:55;;;;;;;7.30;5.60;;;;;;;-143.35;100.00;58682.94;5014043;28;20021;-49
2021/12/25 10:49:23;;;;;;;8.68;5.88;;;;;;;-143.35;100.00;58682.94;5013950;28;20022;-49
2021/12/25 10:51:49;;;;;;;7.72;5.90;;;;;;;-143.35;100.00;58682.94;5013906;28;20037;-50
2021/12/25 10:54:17;;;;;;;9.60;6.95;;;;;;;-143.35;100.00;58682.94;5013769;28;20551;-48
2021/12/25 10:56:45;;;;;;;8.05;6.15;;;;;;;-143.35;100.00;58682.94;5013823;28;20022;-50
2021/12/25 10:59:14;;;;;;;12.85;6.50;;;;;;;-143.35;100.00;58682.94;5013766;28;20025;-48
2021/12/25 11:01:43;;;;;;;8.50;6.20;;;;;;;-143.35;100.00;58682.94;5013884;28;20026;-47
2021/12/25 11:04:31;;;;;;;8.18;5.57;;;;;;;-143.35;100.00;58682.94;5013769;28;20022;-48
2021/12/25 11:06:58;;;;;;;8.90;5.25;;;;;;;-143.35;100.00;58682.94;5013775;28;20069;-49
2021/12/25 11:09:24;;;;;;;7.60;5.90;;;;;;;-143.35;100.00;58682.94;5013754;28;20018;-48
2021/12/25 11:12:15;;;;;;;8.32;5.68;;;;;;;-143.35;100.00;58682.94;5014042;28;20096;-47
2021/12/25 11:14:40;;;;;;;12.02;6.20;;;;;;;-143.35;100.00;58682.94;5013724;28;20041;-49
2021/12/25 11:17:23;;;;;;;7.45;5.90;;;;;;;-143.35;100.00;58682.94;5013637;28;20068;-48
2021/12/25 11:19:59;;;;;;;8.15;6.40;;;;;;;-143.35;100.00;58682.94;5013821;28;20378;-48
2021/12/25 11:22:25;;;;;;;7.78;5.03;;;;;;;-143.35;100.00;58682.94;5013625;28;20037;-49
2021/12/25 11:24:51;;;;;;;7.97;5.63;;;;;;;-143.35;100.00;58682.94;5013730;28;20049;-48
2021/12/25 11:27:17;;;;;;;6.40;5.32;;;;;;;-143.35;100.00;58682.94;5013350;28;20021;-51
2021/12/25 11:29:42;;;;;;;9.13;5.90;;;;;;;-143.35;100.00;58682.94;5013543;28;20026;-47
2021/12/25 11:32:09;;;;;;;8.45;6.20;;;;;;;-143.35;100.00;58682.94;5013461;28;20092;-47
2021/12/25 11:34:35;;;;;;;9.27;6.07;;;;;;;-143.35;100.00;58682.94;5013258;28;20118;-48
2021/12/25 11:37:01;;;;;;;7.55;6.13;;;;;;;-143.35;100.00;58682.94;5013483;28;20121;-48
2021/12/25 11:39:28;;;;;;;6.85;5.38;;;;;;;-143.35;100.00;58682.94;5015625;28;20057;-48
2021/12/25 11:42:00;;;;;;;7.85;5.68;;;;;;;-143.35;100.00;58682.94;5016939;28;20021;-49
2021/12/25 11:44:42;;;;;;;7.55;5.10;;;;;;;-143.35;100.00;58682.94;5016938;28;20026;-48
2021/12/25 11:47:29;;;;;;;8.82;5.68;;;;;;;-143.35;100.00;58682.94;5016964;28;20065;-49
2021/12/25 11:49:56;;;;;;;6.68;5.75;;;;;;;-143.35;100.00;58682.94;5016671;28;20022;-47
2021/12/25 11:52:29;;;;;;;7.72;5.53;;;;;;;-143.35;100.00;58682.94;5016758;28;20113;-48
2021/12/25 12:00:50;;;;;;;9.05;6.55;;;;;;;-143.35;100.00;58682.94;5016810;28;20088;-48
2021/12/25 12:03:44;;;;;;;7.93;5.32;;;;;;;-143.35;100.00;58682.94;5016577;28;20112;-50
2021/12/25 12:06:10;;;;;;;9.60;5.88;;;;;;;-143.35;100.00;58682.94;5016539;28;20018;-49
2021/12/25 12:08:53;;;;;;;6.13;5.30;;;;;;;-143.35;100.00;58682.94;5016543;28;20113;-48
2021/12/25 12:11:26;;;;;;;7.75;5.28;;;;;;;-143.35;100.00;58682.94;5015042;28;20042;-51
2021/12/25 12:14:11;;;;;;;7.65;5.35;;;;;;;-143.35;100.00;58682.94;5016437;28;20033;-50
2021/12/25 12:16:39;;;;;;;7.72;6.10;;;;;;;-143.35;100.00;58682.94;5016364;28;20029;-48
2021/12/25 12:19:35;;;;;;;7.93;6.00;;;;;;;-143.35;100.00;58682.94;5016266;28;20136;-50
2021/12/25 12:27:41;;;;;;;10.88;5.82;;;;;;;-143.35;100.00;58682.94;5016174;28;20053;-50
2021/12/25 12:30:10;;;;;;;5.20;4.60;;;;;;;-143.35;100.00;58682.94;5015995;28;20488;-49
2021/12/25 12:32:45;;;;;;;6.40;5.20;;;;;;;-143.35;100.00;58682.94;5016026;28;20033;-48